Time;durP1;ratioP1;P1;durP2;ratioP2;P2;SDS_P1;SDS_P2;PMS_P1;PMS_P2;Temp;Humidity;BMP_temperature;BMP_pressure;BME280_temperature;BME280_humidity;BME280_pressure;Samples;Min_cycle;Max_cycle;Signal;HPM_P1;HPM_P2
2021/01/23 00:00:58;;;;;;;3.67;2.90;;;17.10;51.40;;;;;;5105675;28;20169;-59
2021/01/23 00:03:24;;;;;;;3.95;2.90;;;17.00;51.40;;;;;;5105545;28;20227;-58
2021/01/23 00:05:49;;;;;;;3.00;2.78;;;17.10;51.40;;;;;;5105302;28;20203;-57
2021/01/23 00:08:15;;;;;;;4.18;3.30;;;17.00;51.30;;;;;;5105065;28;20169;-59
2021/01/23 00:10:40;;;;;;;3.28;2.97;;;17.00;51.30;;;;;;5105112;28;20213;-59
2021/01/23 00:13:06;;;;;;;4.50;2.97;;;17.00;51.30;;;;;;5105348;28;20168;-59
2021/01/23 00:15:32;;;;;;;3.05;2.75;;;17.00;51.30;;;;;;5105594;28;20767;-55
2021/01/23 00:17:57;;;;;;;3.22;2.92;;;16.90;51.20;;;;;;5105178;28;20165;-58
2021/01/23 00:20:23;;;;;;;3.40;3.10;;;16.90;51.20;;;;;;5105020;28;20702;-58
2021/01/23 00:22:50;;;;;;;3.90;3.30;;;16.90;51.20;;;;;;5104805;28;20618;-58
2021/01/23 00:25:15;;;;;;;3.72;2.63;;;16.90;51.10;;;;;;5102237;28;21060;-55
2021/01/23 00:27:41;;;;;;;3.47;2.95;;;16.90;51.10;;;;;;5084747;28;20257;-56
2021/01/23 00:30:08;;;;;;;4.88;2.97;;;16.90;51.10;;;;;;5084398;28;20671;-55
2021/01/23 00:32:33;;;;;;;3.45;3.15;;;16.90;51.10;;;;;;5084243;28;20209;-58
2021/01/23 00:34:59;;;;;;;3.58;3.20;;;16.90;51.10;;;;;;5084500;28;20343;-56
2021/01/23 00:37:24;;;;;;;3.65;3.10;;;16.90;51.10;;;;;;5084183;28;20174;-58
2021/01/23 00:39:50;;;;;;;3.88;3.35;;;16.80;51.00;;;;;;5083952;28;20177;-59
2021/01/23 00:42:15;;;;;;;3.80;3.28;;;16.80;51.00;;;;;;5084362;28;20639;-59
2021/01/23 00:44:41;;;;;;;4.60;3.22;;;16.80;51.00;;;;;;5084247;28;21097;-59
2021/01/23 00:47:06;;;;;;;3.42;3.13;;;16.80;50.90;;;;;;5084420;28;20680;-59
2021/01/23 00:49:32;;;;;;;3.58;3.20;;;16.80;51.10;;;;;;5084085;28;20192;-60
2021/01/23 00:51:57;;;;;;;4.18;3.20;;;16.80;51.00;;;;;;5084033;28;20170;-58
2021/01/23 00:54:23;;;;;;;4.80;3.00;;;16.80;50.90;;;;;;5084012;28;20173;-59
2021/01/23 00:56:49;;;;;;;3.80;3.50;;;16.70;50.90;;;;;;5084425;28;20256;-59
2021/01/23 00:59:14;;;;;;;3.75;3.42;;;16.70;50.90;;;;;;5084072;28;20174;-54
2021/01/23 01:01:40;;;;;;;3.80;3.45;;;16.80;50.90;;;;;;5084184;28;20180;-58
2021/01/23 01:04:05;;;;;;;3.88;3.47;;;16.70;50.90;;;;;;5083859;28;20182;-56
2021/01/23 01:06:31;;;;;;;4.25;3.30;;;16.70;50.90;;;;;;5083837;28;20257;-53
2021/01/23 01:08:57;;;;;;;3.67;3.13;;;16.70;50.80;;;;;;5083970;28;20181;-54
2021/01/23 01:11:22;;;;;;;3.83;3.13;;;16.70;50.70;;;;;;5084206;28;20206;-53
2021/01/23 01:13:48;;;;;;;4.25;3.20;;;16.60;50.80;;;;;;5083914;28;20643;-57
2021/01/23 01:16:13;;;;;;;3.80;3.50;;;16.70;50.80;;;;;;5083991;28;20542;-57
2021/01/23 01:18:39;;;;;;;3.70;2.85;;;16.70;50.70;;;;;;5087147;28;20178;-57
2021/01/23 01:21:04;;;;;;;3.83;3.17;;;16.60;50.70;;;;;;5088443;28;20256;-58
2021/01/23 01:23:30;;;;;;;4.55;3.10;;;16.60;50.70;;;;;;5087971;28;20170;-59
2021/01/23 01:25:56;;;;;;;3.42;3.13;;;16.60;50.70;;;;;;5096098;28;20603;-58
2021/01/23 01:28:21;;;;;;;3.83;3.35;;;16.60;50.70;;;;;;5090158;28;20272;-57
2021/01/23 01:30:47;;;;;;;3.55;3.22;;;16.60;50.60;;;;;;5108200;28;20253;-57
2021/01/23 01:33:12;;;;;;;3.85;3.00;;;16.60;50.70;;;;;;5108393;28;20177;-56
2021/01/23 01:35:38;;;;;;;4.57;3.30;;;16.60;50.60;;;;;;5108361;28;20597;-57
2021/01/23 01:38:03;;;;;;;3.65;3.20;;;16.60;50.60;;;;;;5108135;28;20191;-57
2021/01/23 01:40:29;;;;;;;4.22;3.40;;;16.60;50.60;;;;;;5108071;28;20180;-58
2021/01/23 01:42:56;;;;;;;3.88;3.42;;;16.50;50.50;;;;;;5108136;28;20188;-59
2021/01/23 01:45:22;;;;;;;3.25;2.95;;;16.50;50.50;;;;;;5107561;28;20238;-57
2021/01/23 01:47:47;;;;;;;3.25;2.95;;;16.60;50.60;;;;;;5108264;28;20170;-59
2021/01/23 01:50:13;;;;;;;3.85;3.20;;;16.50;50.50;;;;;;5089866;28;20201;-58
2021/01/23 01:52:41;;;;;;;3.45;3.15;;;16.50;50.50;;;;;;5108170;28;20431;-56
2021/01/23 01:55:06;;;;;;;3.55;3.20;;;16.50;50.50;;;;;;5090242;28;20200;-56
2021/01/23 01:57:32;;;;;;;3.40;3.10;;;16.50;50.50;;;;;;5108178;28;20664;-58
2021/01/23 01:59:57;;;;;;;3.70;3.35;;;16.50;50.50;;;;;;5107800;28;20184;-56
2021/01/23 02:03:01;;;;;;;3.53;3.20;;;16.50;50.50;;;;;;5107436;28;20169;-55
2021/01/23 02:05:38;;;;;;;3.60;3.22;;;16.50;50.50;;;;;;5107728;28;20177;-59
2021/01/23 02:08:45;;;;;;;3.55;3.15;;;16.50;50.40;;;;;;5107594;28;20165;-55
2021/01/23 02:11:41;;;;;;;4.05;3.55;;;16.50;50.40;;;;;;5059793;28;20221;-55
2021/01/23 02:14:19;;;;;;;3.67;3.38;;;16.50;50.40;;;;;;5107693;28;20177;-57
2021/01/23 02:16:46;;;;;;;4.13;3.35;;;16.40;51.00;;;;;;5073166;28;20225;-58
2021/01/23 02:19:27;;;;;;;3.22;2.90;;;16.40;50.40;;;;;;5089352;28;20173;-58
2021/01/23 02:22:19;;;;;;;4.15;3.00;;;16.40;50.30;;;;;;5107223;28;20177;-57
2021/01/23 02:24:46;;;;;;;3.72;3.20;;;16.40;50.30;;;;;;5107319;28;20200;-56
2021/01/23 02:27:22;;;;;;;4.75;3.30;;;16.40;50.30;;;;;;5050485;28;20174;-58
2021/01/23 02:30:06;;;;;;;3.47;3.17;;;16.40;50.30;;;;;;5065134;28;20635;-54
2021/01/23 02:32:32;;;;;;;3.65;2.78;;;16.40;50.30;;;;;;5064921;28;20939;-54
2021/01/23 02:34:59;;;;;;;3.60;3.30;;;16.40;50.30;;;;;;5065653;28;20293;-55
2021/01/23 02:37:25;;;;;;;3.65;3.22;;;16.30;50.30;;;;;;5065160;28;20206;-59
2021/01/23 02:39:51;;;;;;;4.70;3.53;;;16.40;50.90;;;;;;5065081;28;20178;-58
2021/01/23 02:42:17;;;;;;;3.30;3.00;;;16.30;50.30;;;;;;5065074;28;20198;-54
2021/01/23 02:44:43;;;;;;;3.63;3.28;;;16.30;50.30;;;;;;5065099;28;20198;-58
2021/01/23 02:47:08;;;;;;;3.60;2.97;;;16.30;50.20;;;;;;5065788;28;20178;-54
2021/01/23 02:49:34;;;;;;;4.38;3.20;;;16.30;50.20;;;;;;5066225;28;20517;-54
2021/01/23 02:52:04;;;;;;;3.40;3.10;;;16.30;50.30;;;;;;5066104;28;20187;-56
2021/01/23 02:54:39;;;;;;;3.00;2.75;;;16.30;50.30;;;;;;5065046;28;20635;-55
2021/01/23 02:57:05;;;;;;;3.90;3.42;;;16.30;50.20;;;;;;5064980;28;20166;-53
2021/01/23 02:59:31;;;;;;;3.78;3.35;;;16.30;50.20;;;;;;5065085;28;20678;-57
2021/01/23 03:01:57;;;;;;;4.63;3.55;;;16.30;50.20;;;;;;5065437;28;20252;-51
2021/01/23 03:04:22;;;;;;;3.50;3.20;;;16.30;50.20;;;;;;5064708;28;20588;-55
2021/01/23 03:06:48;;;;;;;3.38;3.08;;;16.20;50.20;;;;;;5065602;28;20197;-56
2021/01/23 03:09:24;;;;;;;3.35;3.03;;;16.20;50.20;;;;;;5048094;28;20189;-56
2021/01/23 03:11:50;;;;;;;3.47;3.17;;;16.20;50.20;;;;;;5065610;28;20938;-56
2021/01/23 03:14:16;;;;;;;5.68;3.40;;;16.20;50.20;;;;;;5064360;28;20201;-58
2021/01/23 03:16:54;;;;;;;3.80;2.92;;;16.20;50.10;;;;;;5065791;28;20628;-58
2021/01/23 03:19:20;;;;;;;3.35;3.05;;;16.20;50.20;;;;;;5065661;28;20615;-54
2021/01/23 03:21:49;;;;;;;3.63;3.33;;;16.10;50.10;;;;;;5065288;28;20170;-57
2021/01/23 03:24:14;;;;;;;3.72;3.42;;;16.20;50.10;;;;;;5065269;28;20182;-57
2021/01/23 03:26:40;;;;;;;3.50;3.20;;;16.20;50.20;;;;;;5081653;28;20180;-56
2021/01/23 03:29:06;;;;;;;3.40;3.10;;;16.20;50.10;;;;;;5105805;28;20188;-54
2021/01/23 03:31:32;;;;;;;4.00;3.10;;;16.20;50.20;;;;;;5105749;28;20217;-55
2021/01/23 03:33:57;;;;;;;4.93;3.40;;;16.10;50.10;;;;;;5105845;28;20166;-53
2021/01/23 03:36:23;;;;;;;3.03;2.75;;;16.10;50.10;;;;;;5105716;28;20177;-55
2021/01/23 03:38:50;;;;;;;3.30;3.00;;;16.10;50.20;;;;;;5105921;28;20253;-54
2021/01/23 03:41:15;;;;;;;4.55;3.22;;;16.10;50.20;;;;;;5105321;28;20568;-58
2021/01/23 03:43:41;;;;;;;4.03;3.08;;;16.10;50.20;;;;;;5105409;28;20180;-58
2021/01/23 03:46:06;;;;;;;3.45;3.05;;;16.10;50.20;;;;;;5105750;28;20177;-57
2021/01/23 03:48:32;;;;;;;3.33;3.05;;;16.10;50.20;;;;;;5105526;28;20653;-56
2021/01/23 03:50:57;;;;;;;3.83;3.00;;;16.10;50.20;;;;;;5105385;28;20254;-57
2021/01/23 03:53:23;;;;;;;3.58;3.10;;;16.10;50.20;;;;;;5105296;28;20165;-54
2021/01/23 03:55:48;;;;;;;3.17;2.90;;;16.10;50.20;;;;;;5105169;28;20184;-58
2021/01/23 03:58:17;;;;;;;3.35;2.72;;;16.10;50.20;;;;;;5105666;28;20627;-59
2021/01/23 04:00:43;;;;;;;2.97;2.70;;;16.10;50.80;;;;;;5105385;28;20226;-52
2021/01/23 04:03:09;;;;;;;3.40;2.65;;;16.10;50.20;;;;;;5104827;28;20623;-53
2021/01/23 04:05:34;;;;;;;4.60;3.25;;;16.10;50.90;;;;;;5105418;28;20176;-56
2021/01/23 04:08:00;;;;;;;3.55;3.08;;;16.00;50.30;;;;;;5105181;28;20181;-56
2021/01/23 04:10:25;;;;;;;3.75;3.20;;;16.10;50.20;;;;;;5104972;28;20490;-58
2021/01/23 04:12:51;;;;;;;5.43;3.40;;;16.00;50.20;;;;;;5105107;28;20169;-59
2021/01/23 04:15:17;;;;;;;3.20;2.90;;;16.20;51.00;;;;;;5105337;28;20558;-58
2021/01/23 04:17:42;;;;;;;3.50;2.90;;;16.00;50.20;;;;;;5104972;28;20176;-57
2021/01/23 04:20:09;;;;;;;3.25;3.05;;;16.00;50.20;;;;;;5105210;28;20689;-60
2021/01/23 04:22:35;;;;;;;3.35;2.78;;;16.00;50.20;;;;;;5104898;28;20196;-56
2021/01/23 04:25:00;;;;;;;4.07;3.17;;;16.00;50.30;;;;;;5105050;28;20631;-58
2021/01/23 04:27:26;;;;;;;3.05;2.75;;;16.00;50.30;;;;;;5084834;28;20219;-58
2021/01/23 04:29:51;;;;;;;3.67;3.38;;;16.00;50.30;;;;;;5084795;28;20276;-51
2021/01/23 04:32:17;;;;;;;3.28;2.88;;;16.00;50.30;;;;;;5084629;28;20580;-57
2021/01/23 04:34:42;;;;;;;3.28;2.97;;;15.90;50.30;;;;;;5084492;28;20249;-56
2021/01/23 04:37:08;;;;;;;4.88;3.28;;;15.90;50.30;;;;;;5084073;28;20177;-57
2021/01/23 04:39:33;;;;;;;3.20;2.90;;;15.90;50.30;;;;;;5084592;28;20215;-55
2021/01/23 04:41:59;;;;;;;3.45;3.00;;;15.90;50.30;;;;;;5084500;28;20863;-55
2021/01/23 04:44:25;;;;;;;3.78;3.47;;;15.90;50.30;;;;;;5084164;28;20356;-55
2021/01/23 04:46:50;;;;;;;4.35;2.83;;;15.90;50.30;;;;;;5084477;28;20181;-57
2021/01/23 04:49:16;;;;;;;4.38;2.72;;;15.90;50.30;;;;;;5049929;28;20257;-56
2021/01/23 04:51:41;;;;;;;3.13;2.83;;;15.90;50.30;;;;;;5083545;28;20240;-56
2021/01/23 04:54:07;;;;;;;2.85;2.65;;;15.90;50.30;;;;;;5083960;28;20170;-57
2021/01/23 04:56:32;;;;;;;3.47;3.17;;;15.90;50.30;;;;;;5084487;28;21048;-56
2021/01/23 04:58:58;;;;;;;3.42;3.17;;;15.90;50.30;;;;;;5084060;28;20174;-55
2021/01/23 05:01:23;;;;;;;3.25;2.88;;;15.90;50.30;;;;;;5084288;28;20182;-54
2021/01/23 05:03:59;;;;;;;2.85;2.65;;;15.90;50.40;;;;;;5083645;28;20186;-55
2021/01/23 05:06:25;;;;;;;3.22;2.92;;;15.90;50.30;;;;;;5084572;28;20193;-58
2021/01/23 05:08:51;;;;;;;2.50;2.30;;;15.90;50.40;;;;;;5083961;28;20225;-58
2021/01/23 05:11:16;;;;;;;2.58;2.38;;;15.80;50.30;;;;;;5084447;28;20698;-57
2021/01/23 05:14:10;;;;;;;3.78;2.83;;;15.90;50.40;;;;;;5083808;28;20181;-58
2021/01/23 05:16:36;;;;;;;3.65;2.90;;;15.80;50.30;;;;;;5083890;28;20683;-58
2021/01/23 05:19:02;;;;;;;3.33;3.00;;;15.80;50.30;;;;;;5066088;28;20284;-59
2021/01/23 05:21:29;;;;;;;3.60;2.60;;;15.80;50.30;;;;;;5083865;28;20623;-59
2021/01/23 05:24:04;;;;;;;2.85;2.60;;;15.80;50.40;;;;;;5083993;28;20284;-60
2021/01/23 05:26:29;;;;;;;2.97;2.53;;;15.80;50.50;;;;;;5096609;28;20634;-59
2021/01/23 05:29:07;;;;;;;2.90;2.63;;;15.80;50.40;;;;;;5104396;28;20169;-59
2021/01/23 05:31:33;;;;;;;2.90;2.70;;;15.80;50.40;;;;;;5104206;28;20236;-53
2021/01/23 05:33:58;;;;;;;3.33;2.90;;;15.80;50.50;;;;;;5086184;28;20669;-59
2021/01/23 05:36:24;;;;;;;3.78;2.90;;;15.80;50.50;;;;;;5104152;28;20534;-57
2021/01/23 05:38:50;;;;;;;3.22;2.92;;;15.80;50.50;;;;;;5104098;28;20231;-60
2021/01/23 05:41:16;;;;;;;3.90;2.67;;;15.80;50.50;;;;;;5103878;28;20205;-51
2021/01/23 05:43:48;;;;;;;3.22;2.92;;;15.70;50.40;;;;;;5104213;28;20212;-56
2021/01/23 05:46:25;;;;;;;3.20;2.90;;;15.70;50.40;;;;;;5103887;28;20177;-56
2021/01/23 05:48:51;;;;;;;2.50;2.30;;;15.70;50.50;;;;;;5103779;28;20543;-56
2021/01/23 05:51:17;;;;;;;2.80;2.33;;;15.70;50.60;;;;;;5103822;28;20213;-58
2021/01/23 05:53:43;;;;;;;2.90;2.70;;;15.80;50.50;;;;;;5103881;28;20203;-52
2021/01/23 05:56:09;;;;;;;2.80;2.60;;;15.70;50.50;;;;;;5103960;28;20169;-59
2021/01/23 05:58:36;;;;;;;3.65;2.67;;;15.70;50.50;;;;;;5103747;28;20326;-57
2021/01/23 06:01:04;;;;;;;3.67;2.70;;;15.70;50.60;;;;;;5104147;28;20185;-53
2021/01/23 06:03:36;;;;;;;3.20;2.90;;;15.70;50.70;;;;;;5104851;28;20712;-58
2021/01/23 06:06:02;;;;;;;3.15;2.55;;;15.70;50.90;;;;;;5107849;28;20175;-54
2021/01/23 06:08:46;;;;;;;2.95;2.63;;;15.80;50.90;;;;;;5107493;28;20173;-56
2021/01/23 06:11:17;;;;;;;2.30;2.10;;;16.10;50.90;;;;;;5107634;28;20224;-57
2021/01/23 06:13:43;;;;;;;2.13;1.92;;;16.30;50.70;;;;;;5107452;28;20875;-58
2021/01/23 06:16:31;;;;;;;2.42;2.22;;;16.60;50.40;;;;;;5107316;28;20178;-54
2021/01/23 06:18:57;;;;;;;2.67;2.20;;;17.10;49.80;;;;;;5107007;28;20213;-54
2021/01/23 06:21:43;;;;;;;2.33;2.13;;;17.40;49.10;;;;;;5107084;28;20177;-56
2021/01/23 06:24:09;;;;;;;1.98;1.83;;;17.80;48.40;;;;;;5090088;28;20256;-57
2021/01/23 06:27:01;;;;;;;2.20;2.00;;;18.20;48.00;;;;;;5093692;28;20220;-60
2021/01/23 06:29:45;;;;;;;1.80;1.70;;;18.40;47.60;;;;;;5082002;28;20238;-57
2021/01/23 06:32:13;;;;;;;2.25;2.05;;;18.50;47.40;;;;;;5086484;28;20967;-57
2021/01/23 06:34:53;;;;;;;2.00;1.90;;;18.70;47.30;;;;;;5086780;28;20181;-56
2021/01/23 06:37:33;;;;;;;2.10;2.00;;;18.70;47.20;;;;;;5086692;28;20174;-58
2021/01/23 06:40:24;;;;;;;2.08;1.88;;;18.70;47.10;;;;;;5086433;28;20173;-55
2021/01/23 06:42:51;;;;;;;2.70;2.10;;;18.70;47.20;;;;;;5086410;28;20185;-55
2021/01/23 06:45:19;;;;;;;2.38;2.20;;;18.70;47.30;;;;;;5086256;28;20169;-59
2021/01/23 06:47:46;;;;;;;2.65;2.00;;;18.70;47.40;;;;;;5086516;28;20265;-59
2021/01/23 06:50:12;;;;;;;2.03;1.90;;;18.60;47.40;;;;;;5085895;28;20209;-58
2021/01/23 06:52:47;;;;;;;1.85;1.75;;;18.60;47.50;;;;;;5086174;28;20223;-57
2021/01/23 06:55:13;;;;;;;2.65;1.98;;;18.60;47.60;;;;;;5086304;28;20169;-57
2021/01/23 06:57:45;;;;;;;2.25;1.83;;;18.60;47.70;;;;;;5086117;28;21019;-54
2021/01/23 07:00:12;;;;;;;2.28;1.90;;;18.50;47.70;;;;;;5086407;28;20173;-59
2021/01/23 07:02:37;;;;;;;2.35;1.85;;;18.50;47.80;;;;;;5086478;28;20197;-56
2021/01/23 07:05:06;;;;;;;1.95;1.80;;;18.50;47.80;;;;;;5068095;28;20216;-55
2021/01/23 07:07:36;;;;;;;2.63;2.08;;;18.40;47.80;;;;;;5068150;28;20635;-58
2021/01/23 07:10:05;;;;;;;2.17;1.58;;;18.40;47.80;;;;;;5086058;28;20177;-57
2021/01/23 07:12:39;;;;;;;1.60;1.48;;;18.40;48.00;;;;;;5085858;28;20173;-54
2021/01/23 07:15:07;;;;;;;1.60;1.50;;;18.30;48.10;;;;;;5084868;28;20178;-55
2021/01/23 07:17:37;;;;;;;2.13;1.92;;;18.20;48.20;;;;;;5085867;28;20527;-56
2021/01/23 07:20:07;;;;;;;1.98;1.77;;;18.10;48.30;;;;;;5085857;28;20173;-60
2021/01/23 07:22:33;;;;;;;2.30;1.80;;;18.10;48.40;;;;;;5085742;28;20184;-53
2021/01/23 07:24:58;;;;;;;2.10;2.00;;;18.10;48.50;;;;;;5085269;28;20182;-56
2021/01/23 07:27:25;;;;;;;1.85;1.70;;;18.10;48.50;;;;;;5105544;28;20257;-55
2021/01/23 07:29:51;;;;;;;2.30;1.80;;;18.10;48.40;;;;;;5105393;28;20662;-52
2021/01/23 07:32:16;;;;;;;2.10;2.00;;;18.10;48.40;;;;;;5106209;28;20230;-58
2021/01/23 07:35:01;;;;;;;2.45;1.77;;;18.10;48.40;;;;;;5106056;28;20215;-65
2021/01/23 07:37:45;;;;;;;1.88;1.77;;;18.10;48.50;;;;;;5106256;28;20275;-64
2021/01/23 07:40:13;;;;;;;2.38;1.88;;;18.10;48.80;;;;;;5105592;28;20181;-61
2021/01/23 07:42:39;;;;;;;3.15;2.08;;;18.10;48.80;;;;;;5071132;28;20192;-61
2021/01/23 07:45:05;;;;;;;5.30;2.40;;;18.20;49.50;;;;;;5071243;28;20212;-61
2021/01/23 07:47:30;;;;;;;2.03;1.80;;;18.10;49.30;;;;;;5087716;28;20729;-62
2021/01/23 07:50:06;;;;;;;2.92;1.85;;;18.20;49.10;;;;;;5105337;28;20248;-63
2021/01/23 07:52:32;;;;;;;1.90;1.48;;;18.20;49.00;;;;;;5105405;28;20183;-63
2021/01/23 07:54:57;;;;;;;2.47;1.90;;;18.20;49.00;;;;;;5087329;28;20173;-61
2021/01/23 07:57:23;;;;;;;3.05;1.63;;;18.20;48.90;;;;;;5087470;28;20180;-62
2021/01/23 07:59:50;;;;;;;2.55;1.80;;;18.20;48.90;;;;;;5105340;28;20585;-62
2021/01/23 08:02:18;;;;;;;2.55;1.70;;;18.20;48.90;;;;;;5105692;28;20204;-62
2021/01/23 08:04:48;;;;;;;1.90;1.73;;;18.30;48.90;;;;;;5105413;28;20173;-61
2021/01/23 08:07:27;;;;;;;2.28;1.63;;;18.30;48.80;;;;;;5105096;28;20169;-64
2021/01/23 08:10:16;;;;;;;2.47;1.70;;;18.30;48.80;;;;;;5087456;28;20196;-62
2021/01/23 08:12:50;;;;;;;2.05;1.65;;;18.30;48.80;;;;;;5105408;28;20512;-63
2021/01/23 08:15:40;;;;;;;2.05;1.85;;;18.30;48.70;;;;;;5105540;28;20276;-62
2021/01/23 08:18:16;;;;;;;2.17;1.52;;;18.30;48.70;;;;;;5104986;28;20173;-62
2021/01/23 08:20:41;;;;;;;1.67;1.58;;;18.30;48.70;;;;;;5087370;28;20177;-63
2021/01/23 08:23:10;;;;;;;2.28;1.70;;;18.30;48.60;;;;;;5105016;28;20177;-63
2021/01/23 08:25:44;;;;;;;2.03;1.63;;;18.40;48.60;;;;;;5099865;28;20235;-62
2021/01/23 08:28:10;;;;;;;2.03;1.67;;;18.40;48.60;;;;;;5084282;28;20180;-60
2021/01/23 08:30:36;;;;;;;1.77;1.33;;;18.30;48.60;;;;;;5084038;28;20576;-61
2021/01/23 08:33:03;;;;;;;2.13;1.85;;;18.30;48.70;;;;;;5084401;28;20174;-62
2021/01/23 08:35:29;;;;;;;2.20;1.65;;;18.20;49.00;;;;;;5084661;28;20177;-62
2021/01/23 08:37:55;;;;;;;2.25;1.63;;;18.10;49.10;;;;;;5084239;28;20531;-61
2021/01/23 08:40:23;;;;;;;1.70;1.50;;;18.10;49.30;;;;;;5083864;28;20249;-62
2021/01/23 08:42:49;;;;;;;1.70;1.50;;;18.00;49.70;;;;;;5083472;28;20184;-61
2021/01/23 08:45:16;;;;;;;2.33;1.60;;;18.00;49.50;;;;;;5065484;28;20543;-62
2021/01/23 08:47:41;;;;;;;1.95;1.42;;;18.10;49.60;;;;;;5080655;28;20182;-62
2021/01/23 08:50:08;;;;;;;1.60;1.50;;;18.00;49.70;;;;;;5082666;28;20248;-63
2021/01/23 08:52:34;;;;;;;3.10;1.42;;;18.00;49.80;;;;;;5082784;28;20529;-63
2021/01/23 08:54:59;;;;;;;2.00;1.90;;;18.00;49.80;;;;;;5082504;28;20178;-62
2021/01/23 08:57:25;;;;;;;3.38;1.48;;;18.00;49.80;;;;;;5082446;28;20178;-61
2021/01/23 08:59:50;;;;;;;3.08;1.42;;;18.00;49.90;;;;;;5082904;28;20169;-61
2021/01/23 09:02:16;;;;;;;1.60;1.50;;;18.00;50.00;;;;;;5082683;28;20185;-62
2021/01/23 09:04:42;;;;;;;1.63;1.40;;;18.00;50.00;;;;;;5082847;28;20649;-61
2021/01/23 09:07:09;;;;;;;1.73;1.63;;;18.00;50.10;;;;;;5082755;28;20174;-62
2021/01/23 09:09:34;;;;;;;2.63;1.38;;;17.90;50.40;;;;;;5082863;28;20177;-64
2021/01/23 09:12:00;;;;;;;2.70;1.70;;;17.80;50.50;;;;;;5082413;28;20201;-62
2021/01/23 09:14:26;;;;;;;1.92;1.55;;;17.80;50.50;;;;;;5082452;28;20260;-62
2021/01/23 09:16:53;;;;;;;1.50;1.40;;;17.80;50.60;;;;;;5082704;28;20174;-63
2021/01/23 09:19:20;;;;;;;1.65;1.50;;;17.70;50.60;;;;;;5082453;28;20177;-62
2021/01/23 09:21:45;;;;;;;2.28;1.60;;;17.70;50.60;;;;;;5082581;28;20173;-62
2021/01/23 09:24:11;;;;;;;1.88;1.30;;;17.70;50.70;;;;;;5062064;28;20185;-62
2021/01/23 09:26:36;;;;;;;1.67;1.55;;;17.70;50.70;;;;;;5096857;28;20185;-63
2021/01/23 09:29:02;;;;;;;1.52;1.30;;;17.70;50.80;;;;;;5104421;28;20788;-64
2021/01/23 09:31:27;;;;;;;2.90;1.70;;;17.80;50.80;;;;;;5104180;28;20551;-63
2021/01/23 09:33:53;;;;;;;2.63;1.50;;;17.80;51.00;;;;;;5104199;28;20539;-62
2021/01/23 09:36:19;;;;;;;1.90;1.65;;;17.80;51.00;;;;;;5104143;28;20173;-63
2021/01/23 09:38:44;;;;;;;2.33;2.03;;;17.80;51.00;;;;;;5105433;28;20237;-64
2021/01/23 09:41:11;;;;;;;2.50;1.80;;;17.90;51.10;;;;;;5107830;28;20284;-63
2021/01/23 09:43:37;;;;;;;1.80;1.65;;;17.90;51.00;;;;;;5108183;28;20169;-63
2021/01/23 09:46:02;;;;;;;2.45;1.60;;;17.90;51.10;;;;;;5108091;28;20230;-62
2021/01/23 09:48:28;;;;;;;3.25;1.83;;;17.90;51.10;;;;;;5107847;28;20886;-63
2021/01/23 09:50:53;;;;;;;2.25;1.92;;;17.90;50.90;;;;;;5107871;28;20989;-62
2021/01/23 09:53:19;;;;;;;2.75;1.75;;;17.90;51.00;;;;;;5089774;28;20249;-64
2021/01/23 09:55:45;;;;;;;2.20;1.80;;;17.80;51.10;;;;;;5107548;28;20742;-64
2021/01/23 09:58:10;;;;;;;1.73;1.40;;;17.80;51.10;;;;;;5089335;28;20183;-63
2021/01/23 10:00:36;;;;;;;1.50;1.40;;;17.80;51.10;;;;;;5107712;28;20188;-62
2021/01/23 10:03:01;;;;;;;1.50;1.40;;;17.70;51.10;;;;;;5107627;28;20623;-64
2021/01/23 10:05:27;;;;;;;2.25;1.83;;;17.70;51.10;;;;;;5107676;28;20637;-64
2021/01/23 10:07:53;;;;;;;2.78;1.80;;;17.70;51.10;;;;;;5107418;28;20234;-63
2021/01/23 10:10:18;;;;;;;3.10;1.63;;;17.70;51.20;;;;;;5107262;28;20957;-62
2021/01/23 10:12:44;;;;;;;1.70;1.50;;;17.70;51.20;;;;;;5107219;28;20169;-64
2021/01/23 10:15:09;;;;;;;1.60;1.50;;;17.70;51.30;;;;;;5107148;28;20195;-64
2021/01/23 10:17:35;;;;;;;2.80;2.03;;;17.60;51.30;;;;;;5107401;28;20261;-61
2021/01/23 10:20:01;;;;;;;4.53;1.50;;;17.60;51.30;;;;;;5107604;28;20219;-62
2021/01/23 10:22:27;;;;;;;2.22;1.75;;;17.60;51.50;;;;;;5107217;28;20232;-62
2021/01/23 10:24:52;;;;;;;4.70;1.83;;;17.50;51.70;;;;;;5106991;28;20177;-64
2021/01/23 10:27:18;;;;;;;3.03;1.70;;;17.60;51.60;;;;;;5087133;28;20193;-62
2021/01/23 10:29:43;;;;;;;3.03;1.70;;;17.50;51.50;;;;;;5086808;28;20196;-63
2021/01/23 10:32:09;;;;;;;1.60;1.50;;;17.50;51.50;;;;;;5086827;28;20240;-62
2021/01/23 10:34:35;;;;;;;1.80;1.52;;;17.50;51.50;;;;;;5086705;28;20534;-62
2021/01/23 10:37:01;;;;;;;1.75;1.45;;;17.50;51.50;;;;;;5086835;28;20250;-62
2021/01/23 10:39:26;;;;;;;2.08;1.60;;;17.50;51.60;;;;;;5086620;28;20170;-62
2021/01/23 10:41:52;;;;;;;2.47;1.80;;;17.50;51.60;;;;;;5086496;28;20635;-62
2021/01/23 10:44:17;;;;;;;2.40;1.60;;;17.50;51.60;;;;;;5086528;28;20311;-63
2021/01/23 10:46:43;;;;;;;2.55;1.58;;;17.50;51.50;;;;;;5086747;28;20181;-62
2021/01/23 10:49:08;;;;;;;1.55;1.45;;;17.50;51.60;;;;;;5086232;28;20181;-61
2021/01/23 10:51:34;;;;;;;2.30;1.48;;;17.50;51.60;;;;;;5085473;28;20205;-62
2021/01/23 10:54:00;;;;;;;1.90;1.38;;;17.50;51.50;;;;;;5086721;28;20170;-62
2021/01/23 10:56:25;;;;;;;2.50;1.70;;;17.50;51.50;;;;;;5086198;28;20299;-61
2021/01/23 10:58:51;;;;;;;1.75;1.40;;;17.40;51.50;;;;;;5086431;28;20184;-61
2021/01/23 11:01:16;;;;;;;1.63;1.52;;;17.40;51.60;;;;;;5086301;28;20202;-61
2021/01/23 11:03:42;;;;;;;1.65;1.45;;;17.40;51.60;;;;;;5086193;28;20619;-60
2021/01/23 11:06:08;;;;;;;1.73;1.30;;;17.40;51.60;;;;;;5085829;28;20623;-63
2021/01/23 11:08:33;;;;;;;3.10;1.70;;;17.30;52.40;;;;;;5085816;28;20568;-63
2021/01/23 11:10:59;;;;;;;2.40;1.40;;;17.30;52.10;;;;;;5085975;28;20213;-62
2021/01/23 11:13:24;;;;;;;1.80;1.52;;;17.30;51.90;;;;;;5086275;28;20181;-63
2021/01/23 11:15:50;;;;;;;2.53;1.40;;;17.30;51.80;;;;;;5085554;28;20216;-62
2021/01/23 11:18:16;;;;;;;2.35;1.67;;;17.30;51.80;;;;;;5085838;28;20181;-62
2021/01/23 11:20:41;;;;;;;2.45;1.70;;;17.20;51.70;;;;;;5085603;28;20227;-62
2021/01/23 11:23:07;;;;;;;2.05;1.30;;;17.20;51.70;;;;;;5085427;28;20311;-62
2021/01/23 11:25:32;;;;;;;1.40;1.30;;;17.20;51.70;;;;;;5089936;28;20188;-63
2021/01/23 11:27:58;;;;;;;2.97;1.27;;;17.20;51.70;;;;;;5105908;28;20173;-63
2021/01/23 11:30:24;;;;;;;2.20;1.25;;;17.20;51.60;;;;;;5105532;28;21047;-61
2021/01/23 11:32:50;;;;;;;11.70;3.22;;;17.20;52.20;;;;;;5105994;28;20173;-58
2021/01/23 11:35:16;;;;;;;6.40;2.67;;;17.20;52.00;;;;;;5105830;28;20650;-59
2021/01/23 11:37:41;;;;;;;12.02;3.15;;;17.30;51.90;;;;;;5105878;28;20246;-58
2021/01/23 11:40:07;;;;;;;6.35;3.65;;;17.50;51.70;;;;;;5105327;28;20192;-60
2021/01/23 11:42:33;;;;;;;5.72;3.00;;;17.70;51.00;;;;;;5105834;28;20432;-61
2021/01/23 11:44:59;;;;;;;6.70;3.15;;;17.90;51.20;;;;;;5087275;28;20949;-61
2021/01/23 11:47:24;;;;;;;7.53;3.45;;;17.80;51.20;;;;;;5105650;28;20238;-60
2021/01/23 11:49:50;;;;;;;4.45;2.92;;;17.70;51.40;;;;;;5105619;28;20177;-62
2021/01/23 11:52:15;;;;;;;4.75;2.70;;;17.60;51.70;;;;;;5105390;28;20290;-63
2021/01/23 11:54:41;;;;;;;4.10;3.17;;;17.50;51.70;;;;;;5087159;28;20507;-62
2021/01/23 11:57:08;;;;;;;5.28;2.35;;;17.40;52.00;;;;;;5105583;28;20241;-62
2021/01/23 11:59:37;;;;;;;3.30;2.20;;;17.40;52.30;;;;;;5105386;28;20645;-62
2021/01/23 12:02:03;;;;;;;5.55;2.30;;;17.40;52.20;;;;;;5105056;28;20226;-63
2021/01/23 12:04:29;;;;;;;3.97;2.38;;;17.40;52.10;;;;;;5105350;28;20177;-64
2021/01/23 12:06:55;;;;;;;3.90;2.42;;;17.40;52.00;;;;;;5105059;28;20179;-61
2021/01/23 12:09:21;;;;;;;3.05;2.20;;;17.40;52.00;;;;;;5105017;28;20161;-59
2021/01/23 12:11:47;;;;;;;4.45;2.05;;;17.50;52.10;;;;;;5105366;28;20215;-62
2021/01/23 12:14:13;;;;;;;4.88;2.55;;;17.40;52.20;;;;;;5105146;28;20200;-61
2021/01/23 12:16:39;;;;;;;3.95;2.58;;;17.40;52.20;;;;;;5104903;28;20169;-60
2021/01/23 12:19:05;;;;;;;3.40;2.25;;;17.40;52.30;;;;;;5104928;28;20171;-62
2021/01/23 12:21:30;;;;;;;3.85;2.28;;;17.40;52.30;;;;;;5104803;28;20177;-61
2021/01/23 12:23:56;;;;;;;3.15;2.17;;;17.40;52.30;;;;;;5104908;28;20173;-59
2021/01/23 12:26:21;;;;;;;4.85;2.67;;;17.40;52.30;;;;;;5093227;28;20681;-63
2021/01/23 12:28:47;;;;;;;3.90;2.03;;;17.30;52.60;;;;;;5084684;28;20182;-62
2021/01/23 12:31:12;;;;;;;4.43;2.03;;;17.30;52.50;;;;;;5084196;28;20580;-60
2021/01/23 12:33:38;;;;;;;3.40;1.98;;;17.30;52.50;;;;;;5066687;28;20185;-60
2021/01/23 12:36:05;;;;;;;3.17;1.88;;;17.20;52.40;;;;;;5084583;28;20176;-57
2021/01/23 12:38:30;;;;;;;3.28;1.90;;;17.20;52.60;;;;;;5084360;28;20180;-60
2021/01/23 12:40:56;;;;;;;4.72;1.90;;;17.20;52.70;;;;;;5084137;28;20177;-59
2021/01/23 12:43:21;;;;;;;3.55;1.85;;;17.20;52.70;;;;;;5084440;28;20209;-61
2021/01/23 12:45:47;;;;;;;3.40;2.30;;;17.30;52.70;;;;;;5084794;28;20178;-60
2021/01/23 12:48:13;;;;;;;3.40;2.05;;;17.30;52.50;;;;;;5084651;28;20169;-62
2021/01/23 12:50:38;;;;;;;4.10;2.30;;;17.20;52.50;;;;;;5083782;28;20616;-62